createdAt,value
2022-10-05T00:00:00.652Z,6.12
2022-10-05T00:03:11.273Z,6.32
2022-10-05T00:06:15.384Z,6.14
2022-10-05T00:09:21.757Z,6.03
2022-10-05T00:12:26.507Z,6.12
2022-10-05T00:15:30.419Z,6.05
2022-10-05T00:18:33.961Z,6.11
2022-10-05T00:21:37.453Z,6.07
2022-10-05T00:24:41.935Z,6.17
2022-10-05T00:27:49.653Z,5.64
2022-10-05T00:30:56.565Z,6.08
2022-10-05T00:34:00.202Z,6.14
2022-10-05T00:37:04.185Z,6.14
2022-10-05T00:40:21.353Z,6.04
2022-10-05T00:43:45.031Z,6.05
2022-10-05T00:46:55.761Z,5.79
2022-10-05T00:50:18.989Z,5.96
2022-10-05T00:53:39.178Z,5.98
2022-10-05T00:57:22.593Z,5.97
2022-10-05T01:00:27.929Z,5.89
2022-10-05T01:03:38.475Z,5.85
2022-10-05T01:06:55.589Z,5.94
2022-10-05T01:10:12.675Z,5.95
2022-10-05T01:13:26.673Z,5.91
2022-10-05T01:16:37.030Z,6.28
2022-10-05T01:20:03.115Z,5.86
2022-10-05T01:23:30.261Z,5.82
2022-10-05T01:26:55.325Z,5.76
2022-10-05T01:30:03.837Z,5.95
2022-10-05T01:33:17.060Z,5.82
2022-10-05T01:36:31.172Z,5.78
2022-10-05T01:39:44.749Z,5.94
2022-10-05T01:43:00.088Z,5.97
2022-10-05T01:46:11.600Z,5.97
2022-10-05T01:49:36.199Z,5.83
2022-10-05T01:52:50.178Z,5.99
2022-10-05T01:56:02.208Z,5.85
2022-10-05T01:59:19.034Z,6.01
2022-10-05T02:02:26.976Z,5.94
2022-10-05T02:05:39.302Z,5.92
2022-10-05T02:08:47.979Z,5.73
2022-10-05T02:11:57.707Z,5.63
2022-10-05T02:15:08.312Z,5.42
2022-10-05T02:18:19.087Z,5.86
2022-10-05T02:21:24.494Z,5.56
2022-10-05T02:24:33.421Z,5.40
2022-10-05T02:27:50.270Z,5.28
2022-10-05T02:30:57.835Z,5.52
2022-10-05T02:34:28.684Z,5.59
2022-10-05T02:38:01.844Z,5.87
2022-10-05T02:41:25.301Z,5.91
2022-10-05T02:44:40.162Z,5.72
2022-10-05T02:47:50.595Z,5.42
2022-10-05T02:51:03.925Z,5.47
2022-10-05T02:54:16.534Z,5.73
2022-10-05T02:57:27.956Z,5.18
2022-10-05T03:00:37.001Z,5.34
2022-10-05T03:03:44.565Z,5.17
2022-10-05T03:07:00.002Z,5.37
2022-10-05T03:10:08.790Z,5.36
2022-10-05T03:13:22.556Z,5.33
2022-10-05T03:16:39.504Z,5.08
2022-10-05T03:20:17.313Z,5.04
2022-10-05T03:23:34.929Z,4.95
2022-10-05T03:26:49.926Z,4.76
2022-10-05T03:29:59.322Z,4.97
2022-10-05T03:35:13.259Z,5.00
2022-10-05T03:38:24.591Z,4.82
2022-10-05T03:41:35.916Z,4.74
2022-10-05T03:44:50.536Z,4.69
2022-10-05T03:48:04.113Z,5.62
2022-10-05T03:51:21.286Z,5.38
2022-10-05T03:54:29.976Z,5.06
2022-10-05T03:57:38.460Z,4.66
2022-10-05T04:00:44.768Z,4.78
2022-10-05T04:03:51.822Z,4.71
2022-10-05T04:06:59.109Z,4.91
2022-10-05T04:10:07.287Z,5.02
2022-10-05T04:13:16.463Z,5.05
2022-10-05T04:16:24.167Z,5.08
2022-10-05T04:19:35.595Z,5.17
2022-10-05T04:22:44.151Z,5.01
2022-10-05T04:25:51.666Z,4.94
2022-10-05T04:29:04.353Z,4.79
2022-10-05T04:32:22.556Z,4.75
2022-10-05T04:35:55.686Z,4.64
2022-10-05T04:39:15.604Z,4.47
2022-10-05T04:42:30.515Z,4.75
2022-10-05T04:45:46.279Z,4.33
2022-10-05T04:49:09.162Z,4.52
2022-10-05T04:52:22.485Z,4.34
2022-10-05T04:55:37.088Z,4.36
2022-10-05T04:58:57.906Z,4.50
2022-10-05T05:02:11.996Z,5.00
2022-10-05T05:06:04.947Z,4.38
2022-10-05T05:09:34.405Z,4.37
2022-10-05T05:12:53.498Z,4.60
2022-10-05T05:16:05.683Z,4.53
2022-10-05T05:19:35.142Z,4.52
2022-10-05T05:22:46.532Z,4.69
2022-10-05T05:26:02.530Z,5.03
2022-10-05T05:29:16.937Z,4.83
2022-10-05T05:32:32.101Z,4.94
2022-10-05T05:35:50.366Z,5.04
2022-10-05T05:38:58.857Z,5.06
2022-10-05T05:42:06.338Z,5.03
2022-10-05T05:45:17.656Z,5.00
2022-10-05T05:48:27.957Z,5.05
2022-10-05T05:51:36.371Z,5.45
2022-10-05T05:54:44.186Z,5.04
2022-10-05T05:57:52.412Z,4.98
2022-10-05T06:01:02.553Z,4.94
2022-10-05T06:04:12.254Z,4.95
2022-10-05T06:07:20.734Z,5.11
2022-10-05T06:10:32.524Z,4.73
2022-10-05T06:13:43.698Z,5.23
2022-10-05T06:16:55.445Z,5.12
2022-10-05T06:20:05.055Z,5.52
2022-10-05T06:23:19.117Z,5.68
2022-10-05T06:26:39.478Z,5.65
2022-10-05T06:30:02.701Z,5.78
2022-10-05T06:33:23.906Z,5.80
2022-10-05T06:36:40.271Z,5.91
2022-10-05T06:40:01.061Z,6.03
2022-10-05T06:43:25.449Z,6.31
2022-10-05T06:46:56.640Z,6.22
2022-10-05T06:50:33.726Z,6.47
2022-10-05T06:54:06.093Z,6.73
2022-10-05T06:57:25.247Z,6.85
2022-10-05T07:00:35.337Z,7.01
2022-10-05T07:03:49.997Z,7.17
2022-10-05T07:06:59.559Z,7.29
2022-10-05T07:10:18.188Z,7.61
2022-10-05T07:13:40.880Z,7.47
2022-10-05T07:16:57.181Z,7.74
2022-10-05T07:20:09.625Z,7.87
2022-10-05T07:23:24.067Z,7.99
2022-10-05T07:26:34.634Z,8.05
2022-10-05T07:29:47.740Z,8.42
2022-10-05T07:32:59.680Z,8.42
2022-10-05T07:36:27.765Z,8.80
2022-10-05T07:39:58.989Z,8.82
2022-10-05T07:43:14.919Z,9.45
2022-10-05T07:46:24.860Z,9.63
2022-10-05T07:49:37.790Z,9.62
2022-10-05T07:52:50.792Z,9.72
2022-10-05T07:56:00.311Z,9.71
2022-10-05T07:59:09.562Z,9.97
2022-10-05T08:02:23.754Z,10.01
2022-10-05T08:05:30.230Z,9.96
2022-10-05T08:08:44.028Z,10.08
2022-10-05T08:11:56.634Z,10.39
2022-10-05T08:15:04.316Z,10.55
2022-10-05T08:18:16.893Z,10.67
2022-10-05T08:21:25.829Z,11.00
2022-10-05T08:24:41.791Z,10.76
2022-10-05T08:27:52.834Z,11.38
2022-10-05T08:31:01.437Z,11.59
2022-10-05T08:34:17.436Z,11.17
2022-10-05T08:37:25.241Z,11.40
2022-10-05T08:40:42.760Z,11.60
2022-10-05T08:44:08.131Z,11.62
2022-10-05T08:47:38.130Z,11.74
2022-10-05T08:51:03.991Z,11.89
2022-10-05T08:54:40.113Z,12.25
2022-10-05T08:58:12.244Z,12.22
2022-10-05T09:01:23.496Z,12.49
2022-10-05T09:04:42.793Z,12.72
2022-10-05T09:08:08.644Z,12.82
2022-10-05T09:11:16.697Z,12.52
2022-10-05T09:14:42.858Z,12.96
2022-10-05T09:18:21.411Z,13.41
2022-10-05T09:21:41.296Z,13.89
2022-10-05T09:24:57.249Z,13.57
2022-10-05T09:28:12.218Z,13.60
2022-10-05T09:35:16.980Z,14.07
2022-10-05T09:38:32.835Z,13.55
2022-10-05T09:42:09.315Z,13.91
2022-10-05T09:45:49.246Z,14.11
2022-10-05T09:49:11.487Z,14.45
2022-10-05T09:52:48.872Z,13.93
2022-10-05T09:56:13.222Z,14.26
2022-10-05T10:00:02.298Z,14.70
2022-10-05T10:03:45.632Z,14.79
2022-10-05T10:07:21.596Z,14.58
2022-10-05T10:11:02.593Z,14.97
2022-10-05T10:14:23.983Z,14.83
2022-10-05T10:17:43.925Z,15.14
2022-10-05T10:21:24.727Z,15.25
2022-10-05T10:25:02.183Z,15.12
2022-10-05T10:28:32.421Z,14.95
2022-10-05T10:31:50.727Z,15.36
2022-10-05T10:35:20.722Z,15.28
2022-10-05T10:38:33.132Z,15.22
2022-10-05T10:42:22.571Z,15.44
2022-10-05T10:45:45.433Z,15.73
2022-10-05T10:49:07.999Z,15.72
2022-10-05T10:52:26.627Z,15.63
2022-10-05T10:55:39.114Z,15.84
2022-10-05T10:59:18.522Z,15.68
2022-10-05T11:02:42.483Z,15.67
2022-10-05T11:06:27.238Z,16.16
2022-10-05T11:09:53.459Z,15.89
2022-10-05T11:13:24.784Z,16.07
2022-10-05T11:16:39.788Z,16.23
2022-10-05T11:20:06.325Z,16.36
2022-10-05T11:23:39.796Z,16.36
2022-10-05T11:27:12.176Z,16.45
2022-10-05T11:30:37.802Z,16.35
2022-10-05T11:34:18.407Z,16.68
2022-10-05T11:37:39.830Z,16.58
2022-10-05T11:41:03.256Z,16.52
2022-10-05T11:44:35.485Z,16.62
2022-10-05T11:47:48.147Z,16.66
2022-10-05T11:51:09.642Z,16.70
2022-10-05T11:54:35.144Z,16.94
2022-10-05T11:57:54.801Z,17.09
2022-10-05T12:01:04.088Z,16.84
2022-10-05T12:04:18.957Z,16.97
2022-10-05T12:07:30.353Z,16.97
2022-10-05T12:10:45.393Z,17.02
2022-10-05T12:13:56.011Z,17.33
2022-10-05T12:17:13.029Z,17.50
2022-10-05T12:20:21.541Z,17.64
2022-10-05T12:23:34.013Z,17.35
2022-10-05T12:26:44.729Z,17.47
2022-10-05T12:29:57.203Z,17.36
2022-10-05T12:33:09.518Z,17.44
2022-10-05T12:36:16.068Z,17.60
2022-10-05T12:39:27.091Z,17.50
2022-10-05T12:42:41.621Z,17.81
2022-10-05T12:45:59.692Z,17.67
2022-10-05T12:49:18.219Z,17.48
2022-10-05T12:52:37.003Z,17.51
2022-10-05T12:55:48.236Z,17.49
2022-10-05T12:59:01.061Z,17.71
2022-10-05T13:02:14.116Z,17.96
2022-10-05T13:05:28.231Z,17.78
2022-10-05T13:08:41.351Z,17.80
2022-10-05T13:11:49.418Z,18.08
2022-10-05T13:15:05.206Z,18.13
2022-10-05T13:18:22.426Z,18.12
2022-10-05T13:21:34.015Z,18.23
2022-10-05T13:24:43.609Z,17.87
2022-10-05T13:27:53.278Z,18.31
2022-10-05T13:31:07.966Z,18.48
2022-10-05T13:34:24.619Z,18.16
2022-10-05T13:37:34.918Z,18.46
2022-10-05T13:40:47.015Z,18.16
2022-10-05T13:44:00.079Z,18.02
2022-10-05T13:47:09.529Z,18.07
2022-10-05T13:50:20.160Z,18.22
2022-10-05T13:53:37.426Z,18.24
2022-10-05T13:56:45.901Z,18.63
2022-10-05T13:59:54.976Z,18.31
2022-10-05T14:03:01.945Z,18.92
2022-10-05T14:06:12.417Z,18.84
2022-10-05T14:09:29.512Z,18.75
2022-10-05T14:12:41.284Z,18.85
2022-10-05T14:15:57.263Z,18.41
2022-10-05T14:19:24.647Z,18.78
2022-10-05T14:22:29.539Z,18.87
2022-10-05T14:25:46.437Z,19.05
2022-10-05T14:29:01.173Z,19.13
2022-10-05T14:32:13.921Z,18.77
2022-10-05T14:35:21.969Z,18.98
2022-10-05T14:38:29.400Z,18.61
2022-10-05T14:41:37.574Z,18.85
2022-10-05T14:44:41.049Z,18.87
2022-10-05T14:47:48.965Z,18.71
2022-10-05T14:50:59.312Z,18.22
2022-10-05T14:54:04.632Z,18.23
2022-10-05T14:57:16.336Z,18.30
2022-10-05T15:00:20.155Z,18.34
2022-10-05T15:03:51.970Z,18.48
2022-10-05T15:07:14.105Z,18.45
2022-10-05T15:10:33.804Z,18.06
2022-10-05T15:13:41.451Z,18.03
2022-10-05T15:16:45.964Z,18.12
2022-10-05T15:20:01.689Z,18.22
2022-10-05T15:23:24.493Z,17.77
2022-10-05T15:26:41.532Z,17.82
2022-10-05T15:29:57.737Z,18.10
2022-10-05T15:35:32.027Z,17.65
2022-10-05T15:38:42.667Z,17.76
2022-10-05T15:42:00.176Z,17.49
2022-10-05T15:45:13.294Z,17.48
2022-10-05T15:48:20.920Z,17.43
2022-10-05T15:51:31.755Z,17.27
2022-10-05T15:55:02.745Z,17.36
2022-10-05T15:58:23.663Z,16.97
2022-10-05T16:01:47.165Z,16.95
2022-10-05T16:05:04.484Z,16.80
2022-10-05T16:08:32.838Z,16.82
2022-10-05T16:11:53.918Z,16.95
2022-10-05T16:15:07.280Z,16.53
2022-10-05T16:18:34.018Z,16.72
2022-10-05T16:21:45.803Z,16.49
2022-10-05T16:25:03.806Z,16.36
2022-10-05T16:28:18.918Z,16.40
2022-10-05T16:31:31.041Z,16.08
2022-10-05T16:34:49.337Z,16.14
2022-10-05T16:38:05.743Z,16.07
2022-10-05T16:41:20.861Z,15.68
2022-10-05T16:44:34.465Z,15.88
2022-10-05T16:47:47.913Z,15.75
2022-10-05T16:51:02.503Z,15.63
2022-10-05T16:54:19.024Z,15.75
2022-10-05T16:57:28.202Z,15.22
2022-10-05T17:00:40.758Z,15.31
2022-10-05T17:04:03.294Z,15.30
2022-10-05T17:07:22.674Z,15.16
2022-10-05T17:10:41.084Z,15.04
2022-10-05T17:14:04.859Z,15.00
2022-10-05T17:17:34.273Z,14.83
2022-10-05T17:20:47.009Z,14.95
2022-10-05T17:23:55.832Z,14.62
2022-10-05T17:27:07.175Z,14.86
2022-10-05T17:30:53.966Z,14.99
2022-10-05T17:34:27.299Z,14.81
2022-10-05T17:37:36.461Z,14.50
2022-10-05T17:40:40.619Z,14.43
2022-10-05T17:44:19.964Z,14.55
2022-10-05T17:47:58.434Z,14.44
2022-10-05T17:51:19.066Z,14.50
2022-10-05T17:54:41.600Z,14.17
2022-10-05T17:57:44.868Z,14.15
2022-10-05T18:01:16.992Z,13.94
2022-10-05T18:04:34.617Z,13.97
2022-10-05T18:07:39.203Z,13.84
2022-10-05T18:11:07.091Z,13.79
2022-10-05T18:14:19.955Z,13.84
2022-10-05T18:17:39.894Z,13.86
2022-10-05T18:21:20.429Z,13.80
2022-10-05T18:24:45.234Z,13.85
2022-10-05T18:28:00.880Z,13.82
2022-10-05T18:31:18.321Z,13.64
2022-10-05T18:34:32.387Z,13.79
2022-10-05T18:37:48.644Z,13.84
2022-10-05T18:41:00.203Z,13.70
2022-10-05T18:44:21.894Z,13.70
2022-10-05T18:47:33.129Z,13.76
2022-10-05T18:50:43.642Z,13.70
2022-10-05T18:54:02.734Z,13.65
2022-10-05T18:57:38.625Z,13.47
2022-10-05T19:00:59.914Z,13.53
2022-10-05T19:04:19.311Z,13.47
2022-10-05T19:07:33.663Z,13.50
2022-10-05T19:10:45.239Z,13.52
2022-10-05T19:13:58.338Z,13.36
2022-10-05T19:17:19.254Z,13.22
2022-10-05T19:20:27.464Z,13.25
2022-10-05T19:23:47.865Z,13.19
2022-10-05T19:27:06.555Z,13.08
2022-10-05T19:30:19.613Z,13.12
2022-10-05T19:33:39.637Z,12.94
2022-10-05T19:37:02.267Z,12.80
2022-10-05T19:40:16.580Z,12.72
2022-10-05T19:43:45.645Z,12.74
2022-10-05T19:46:59.698Z,12.71
2022-10-05T19:50:25.933Z,12.58
2022-10-05T19:53:31.838Z,12.54
2022-10-05T19:56:46.640Z,12.35
2022-10-05T19:59:57.493Z,12.18
2022-10-05T20:03:12.856Z,12.40
2022-10-05T20:06:16.186Z,12.35
2022-10-05T20:09:21.538Z,12.12
2022-10-05T20:12:50.534Z,12.21
2022-10-05T20:16:45.847Z,11.91
2022-10-05T20:20:06.436Z,11.78
2022-10-05T20:23:24.196Z,11.60
2022-10-05T20:27:05.478Z,11.48
2022-10-05T20:30:10.342Z,11.39
2022-10-05T20:33:14.855Z,11.57
2022-10-05T20:36:17.967Z,11.44
2022-10-05T20:39:21.470Z,11.29
2022-10-05T20:42:25.403Z,11.13
2022-10-05T20:45:28.555Z,11.03
2022-10-05T20:48:33.068Z,11.41
2022-10-05T20:51:36.802Z,10.90
2022-10-05T20:54:40.493Z,10.74
2022-10-05T20:57:46.004Z,11.08
2022-10-05T21:01:06.768Z,10.95
2022-10-05T21:04:11.374Z,10.72
2022-10-05T21:07:15.379Z,11.35
2022-10-05T21:10:18.660Z,10.63
2022-10-05T21:13:21.778Z,11.20
2022-10-05T21:16:25.013Z,11.05
2022-10-05T21:19:30.191Z,10.95
2022-10-05T21:22:35.454Z,10.64
2022-10-05T21:25:38.692Z,10.46
2022-10-05T21:28:42.564Z,10.91
2022-10-05T21:35:02.721Z,10.31
2022-10-05T21:38:05.989Z,10.45
2022-10-05T21:41:09.451Z,10.32
2022-10-05T21:44:12.643Z,10.29
2022-10-05T21:47:15.826Z,10.50
2022-10-05T21:50:22.504Z,10.28
2022-10-05T21:53:28.778Z,10.54
2022-10-05T21:56:34.822Z,10.08
2022-10-05T21:59:38.131Z,10.51
2022-10-05T22:02:41.670Z,10.16
2022-10-05T22:05:46.246Z,10.19
2022-10-05T22:08:49.554Z,10.38
2022-10-05T22:11:53.115Z,10.35
2022-10-05T22:14:56.342Z,10.11
2022-10-05T22:18:00.496Z,10.13
2022-10-05T22:21:05.976Z,9.88
2022-10-05T22:24:09.923Z,10.41
2022-10-05T22:27:13.371Z,9.96
2022-10-05T22:30:16.713Z,9.88
2022-10-05T22:33:19.892Z,10.00
2022-10-05T22:36:24.771Z,9.69
2022-10-05T22:39:28.091Z,10.07
2022-10-05T22:42:31.195Z,9.85
2022-10-05T22:45:34.559Z,10.13
2022-10-05T22:48:37.710Z,9.85
2022-10-05T22:51:42.180Z,9.80
2022-10-05T22:54:45.553Z,10.05
2022-10-05T22:57:49.189Z,10.01
2022-10-05T23:00:58.362Z,10.13
2022-10-05T23:04:02.032Z,10.27
2022-10-05T23:07:06.549Z,10.52
2022-10-05T23:10:12.270Z,10.51
2022-10-05T23:13:16.282Z,10.37
2022-10-05T23:16:21.236Z,10.24
2022-10-05T23:19:24.782Z,9.89
2022-10-05T23:22:29.269Z,9.86
2022-10-05T23:25:32.576Z,10.07
2022-10-05T23:28:35.872Z,9.90
2022-10-05T23:31:38.972Z,9.97
2022-10-05T23:34:42.192Z,9.96
2022-10-05T23:37:46.681Z,9.82
2022-10-05T23:40:49.798Z,9.76
2022-10-05T23:43:54.647Z,9.81
2022-10-05T23:46:57.755Z,9.87
2022-10-05T23:50:00.902Z,9.76
2022-10-05T23:53:05.732Z,9.87
2022-10-05T23:56:09.231Z,9.80
2022-10-05T23:59:12.439Z,9.67
